VABP/BHO METAR and TAF weather

Enter ICAO airport designator
Station Type Date Time Source
VABP METAR 2021/09/27 06:30 UTC NOAA

VABP 270630Z 04006KT 4000 HZ FEW020 SCT025 30/23 Q1007 NOSIG


Station Type Date Time Source
VABP Decoded METAR 2021/09/27 06:30 UTC NOAA

Bhopal / Bairagarh, India (VABP) 23-17N 077-21E 523M
Sep 27, 2021 - 02:30 AM EDT / 2021.09.27 0630 UTC
Wind: from the NE (040 degrees) at 7 MPH (6 KT):0
Visibility: 2 mile(s):0
Sky conditions: partly cloudy
Weather: haze
Temperature: 86 F (30 C)
Heat index: 93.4 F (34.1 C):1
Dew Point: 73 F (23 C)
Relative Humidity: 66%
Pressure (altimeter): 29.74 in. Hg (1007 hPa)
ob: VABP 270630Z 04006KT 4000 HZ FEW020 SCT025 30/23 Q1007 NOSIG
cycle: 6

Station Type Date Time Source
VABP TAF 2021/03/31 00:00 UTC NOAA

TAF VABP 302300Z 3100/0106 27010KT 5000 HZ NSC
BECMG 3104/3106 29010G20KT 6000 NSC
BECMG 3115/3117 27010KT 5000 HZ NSC
BECMG 0104/0106 27010G20KT 6000 NSC

Example: see airport list